Time;durP1;ratioP1;P1;durP2;ratioP2;P2;SDS_P1;SDS_P2;PMS_P1;PMS_P2;Temp;Humidity;BMP_temperature;BMP_pressure;BME280_temperature;BME280_humidity;BME280_pressure;Samples;Min_cycle;Max_cycle;Signal;HPM_P1;HPM_P2
2021/09/09 00:00:17;;;;;;;9.67;7.40;;;15.40;99.90;;;;;;4979911;28;20200;-80
2021/09/09 00:02:42;;;;;;;10.63;7.90;;;15.40;99.90;;;;;;4980637;28;20176;-81
2021/09/09 00:05:10;;;;;;;10.20;7.43;;;15.40;99.90;;;;;;4980435;28;20262;-81
2021/09/09 00:07:37;;;;;;;10.10;7.73;;;15.40;99.90;;;;;;4978627;28;20188;-81
2021/09/09 00:10:05;;;;;;;9.37;7.60;;;15.50;99.90;;;;;;4979082;28;20207;-81
2021/09/09 00:12:30;;;;;;;8.43;7.10;;;15.50;99.90;;;;;;4978473;28;20307;-80
2021/09/09 00:14:56;;;;;;;9.27;7.70;;;15.50;99.90;;;;;;4980329;28;20274;-81
2021/09/09 00:17:21;;;;;;;9.87;8.33;;;15.60;99.90;;;;;;4979273;28;20183;-81
2021/09/09 00:19:47;;;;;;;8.83;7.00;;;15.60;99.90;;;;;;4979873;28;20251;-81
2021/09/09 00:22:13;;;;;;;15.30;7.77;;;15.60;99.90;;;;;;4979334;28;20184;-81
2021/09/09 00:24:38;;;;;;;9.57;7.57;;;15.60;99.90;;;;;;4979899;28;20189;-80
2021/09/09 00:27:04;;;;;;;7.80;6.90;;;15.60;99.90;;;;;;4981051;28;20648;-80
2021/09/09 00:29:30;;;;;;;9.70;7.50;;;15.60;99.90;;;;;;4979719;28;20200;-81
2021/09/09 00:31:56;;;;;;;12.57;7.43;;;15.60;99.90;;;;;;4978812;28;20580;-81
2021/09/09 00:34:21;;;;;;;9.93;7.43;;;15.60;99.90;;;;;;4979539;28;20275;-81
2021/09/09 00:36:47;;;;;;;9.97;7.13;;;15.50;99.90;;;;;;4980852;28;20169;-81
2021/09/09 00:39:13;;;;;;;12.20;7.40;;;15.50;99.90;;;;;;4983521;28;20187;-80
2021/09/09 00:41:38;;;;;;;10.07;7.03;;;15.50;99.90;;;;;;4985275;28;20181;-81
2021/09/09 00:44:04;;;;;;;9.03;7.03;;;15.50;99.90;;;;;;4983189;28;20191;-81
2021/09/09 00:46:33;;;;;;;9.50;7.60;;;15.50;99.90;;;;;;4983374;28;20583;-81
2021/09/09 00:48:59;;;;;;;8.90;7.43;;;15.60;99.90;;;;;;4984748;28;20180;-81
2021/09/09 00:51:25;;;;;;;12.73;7.20;;;15.60;99.90;;;;;;4986842;28;20214;-81
2021/09/09 00:53:51;;;;;;;7.93;6.87;;;15.60;99.90;;;;;;4999003;28;20173;-80
2021/09/09 00:56:19;;;;;;;11.10;7.33;;;15.60;99.90;;;;;;4998770;28;20172;-80
2021/09/09 00:58:45;;;;;;;11.80;7.43;;;15.70;99.90;;;;;;4990268;28;20709;-81
2021/09/09 01:01:11;;;;;;;8.87;6.90;;;15.60;99.90;;;;;;4984280;28;20263;-81
2021/09/09 01:03:37;;;;;;;8.40;7.33;;;15.70;99.90;;;;;;4985366;28;20200;-81
2021/09/09 01:06:03;;;;;;;9.93;7.00;;;15.70;99.90;;;;;;4996740;28;20188;-80
2021/09/09 01:08:31;;;;;;;11.30;7.00;;;15.70;99.90;;;;;;5000441;28;20224;-80
2021/09/09 01:10:58;;;;;;;9.77;6.70;;;15.70;99.90;;;;;;4992571;28;20256;-81
2021/09/09 01:13:25;;;;;;;8.13;6.57;;;15.70;99.90;;;;;;4987330;28;20616;-80
2021/09/09 01:15:50;;;;;;;11.73;7.30;;;15.70;99.90;;;;;;4983104;28;20172;-80
2021/09/09 01:18:16;;;;;;;10.20;6.77;;;15.70;99.90;;;;;;4981812;28;20243;-80
2021/09/09 01:20:42;;;;;;;9.17;7.00;;;15.70;99.90;;;;;;4981364;28;20268;-80
2021/09/09 01:23:08;;;;;;;9.93;6.13;;;15.70;99.90;;;;;;4982334;28;20540;-81
2021/09/09 01:25:35;;;;;;;12.37;7.20;;;15.70;99.90;;;;;;4981075;28;20184;-81
2021/09/09 01:28:01;;;;;;;13.73;6.90;;;15.60;99.90;;;;;;4982348;28;20291;-80
2021/09/09 01:30:27;;;;;;;8.30;6.83;;;15.60;99.90;;;;;;4980825;28;20207;-80
2021/09/09 01:32:52;;;;;;;11.17;6.40;;;15.60;99.90;;;;;;4980552;28;20567;-80
2021/09/09 01:35:18;;;;;;;9.30;6.57;;;15.60;99.90;;;;;;4981107;28;20251;-80
2021/09/09 01:37:44;;;;;;;11.33;7.33;;;15.60;99.90;;;;;;4982261;28;20183;-80
2021/09/09 01:40:11;;;;;;;7.17;6.17;;;15.50;99.90;;;;;;4982444;28;20203;-80
2021/09/09 01:42:36;;;;;;;9.97;6.33;;;15.50;99.90;;;;;;4982013;28;20177;-81
2021/09/09 01:45:02;;;;;;;7.33;6.17;;;15.40;99.90;;;;;;4980953;28;20212;-80
2021/09/09 01:47:28;;;;;;;9.27;6.70;;;15.40;99.90;;;;;;4981029;28;20232;-81
2021/09/09 01:49:54;;;;;;;8.73;6.70;;;15.40;99.90;;;;;;4981988;28;20719;-81
2021/09/09 01:52:20;;;;;;;8.60;6.40;;;15.30;99.90;;;;;;4981321;28;20259;-81
2021/09/09 01:54:45;;;;;;;8.40;6.20;;;15.30;99.90;;;;;;4981537;28;20176;-81
2021/09/09 01:57:11;;;;;;;9.50;6.23;;;15.30;99.90;;;;;;4981371;28;20180;-81
2021/09/09 01:59:37;;;;;;;9.17;6.57;;;15.30;99.90;;;;;;4981675;28;20764;-81
2021/09/09 02:02:02;;;;;;;7.97;7.03;;;15.30;99.90;;;;;;4981551;28;20685;-80
2021/09/09 02:04:29;;;;;;;8.07;6.53;;;15.30;99.90;;;;;;4981291;28;20188;-81
2021/09/09 02:06:56;;;;;;;10.77;6.80;;;15.30;99.90;;;;;;4981870;28;20185;-81
2021/09/09 02:09:22;;;;;;;7.87;6.27;;;15.20;99.90;;;;;;4981894;28;20662;-81
2021/09/09 02:11:47;;;;;;;7.03;6.33;;;15.20;99.90;;;;;;4981977;28;20334;-80
2021/09/09 02:14:13;;;;;;;8.33;6.23;;;15.20;99.90;;;;;;4980554;28;20204;-81
2021/09/09 02:16:39;;;;;;;8.13;6.40;;;15.20;99.90;;;;;;4982003;28;20662;-81
2021/09/09 02:19:04;;;;;;;8.23;5.90;;;15.20;99.90;;;;;;4982294;28;20513;-81
2021/09/09 02:21:30;;;;;;;8.57;6.63;;;15.20;99.90;;;;;;4980587;28;20231;-81
2021/09/09 02:23:56;;;;;;;8.57;6.23;;;15.20;99.90;;;;;;4981210;28;20178;-81
2021/09/09 02:26:21;;;;;;;8.50;6.70;;;15.20;99.90;;;;;;4981891;28;20243;-81
2021/09/09 02:28:47;;;;;;;7.73;6.80;;;15.20;99.90;;;;;;4982461;28;20213;-81
2021/09/09 02:31:13;;;;;;;11.80;6.77;;;15.20;99.90;;;;;;4981725;28;20569;-81
2021/09/09 02:33:39;;;;;;;8.40;6.57;;;15.20;99.90;;;;;;4983440;28;20184;-81
2021/09/09 02:36:05;;;;;;;7.47;6.23;;;15.20;99.90;;;;;;4982884;28;20194;-80
2021/09/09 02:38:31;;;;;;;7.97;6.10;;;15.20;99.90;;;;;;4982274;28;20208;-81
2021/09/09 02:40:57;;;;;;;8.17;5.63;;;15.20;99.90;;;;;;4982872;28;20207;-80
2021/09/09 02:43:22;;;;;;;8.10;6.23;;;15.20;99.90;;;;;;4990750;28;20184;-80
2021/09/09 02:45:48;;;;;;;8.17;6.37;;;15.20;99.90;;;;;;4994757;28;20179;-80
2021/09/09 02:48:14;;;;;;;11.37;6.37;;;15.20;99.90;;;;;;4991239;28;20176;-80
2021/09/09 02:50:39;;;;;;;9.27;6.10;;;15.20;99.90;;;;;;4979650;28;20196;-80
2021/09/09 02:53:05;;;;;;;8.33;6.20;;;15.10;99.90;;;;;;4981456;28;20207;-80
2021/09/09 02:55:31;;;;;;;7.93;6.27;;;15.10;99.90;;;;;;4983229;28;20231;-81
2021/09/09 02:57:56;;;;;;;6.87;5.70;;;15.00;99.90;;;;;;4996653;28;20219;-80
2021/09/09 03:00:22;;;;;;;8.17;6.10;;;15.00;99.90;;;;;;4997869;28;20207;-79
2021/09/09 03:02:48;;;;;;;7.77;6.57;;;15.00;99.90;;;;;;4990286;28;20165;-81
2021/09/09 03:05:14;;;;;;;11.30;6.70;;;15.00;99.90;;;;;;4980764;28;20171;-80
2021/09/09 03:07:39;;;;;;;11.97;6.93;;;14.90;99.90;;;;;;4981977;28;20244;-81
2021/09/09 03:10:06;;;;;;;8.70;6.23;;;14.90;99.90;;;;;;4981917;28;20279;-81
2021/09/09 03:12:33;;;;;;;8.63;6.40;;;14.90;99.90;;;;;;4982033;28;20212;-80
2021/09/09 03:14:58;;;;;;;9.03;6.20;;;14.90;99.90;;;;;;4980017;28;20672;-80
2021/09/09 03:17:24;;;;;;;6.47;5.80;;;14.90;99.90;;;;;;4981111;28;20173;-81
2021/09/09 03:19:50;;;;;;;7.30;6.10;;;14.90;99.90;;;;;;4982396;28;20204;-81
2021/09/09 03:22:15;;;;;;;8.77;6.00;;;14.80;99.90;;;;;;4980047;28;20185;-80
2021/09/09 03:24:41;;;;;;;7.93;6.53;;;14.80;99.90;;;;;;4981562;28;20181;-81
2021/09/09 03:27:07;;;;;;;7.80;5.87;;;14.80;99.90;;;;;;4981202;28;20208;-81
2021/09/09 03:29:32;;;;;;;8.23;6.40;;;14.80;99.90;;;;;;4982875;28;20210;-80
2021/09/09 03:31:58;;;;;;;8.53;6.30;;;14.80;99.90;;;;;;4981259;28;20203;-81
2021/09/09 03:34:24;;;;;;;7.07;5.87;;;14.80;99.90;;;;;;4980849;28;20533;-81
2021/09/09 03:36:49;;;;;;;6.93;5.13;;;14.90;99.90;;;;;;4981114;28;20650;-80
2021/09/09 03:39:16;;;;;;;6.77;5.83;;;14.90;99.90;;;;;;4980288;28;20734;-80
2021/09/09 03:41:41;;;;;;;6.83;5.50;;;14.90;99.90;;;;;;4979540;28;20227;-81
2021/09/09 03:44:07;;;;;;;6.23;5.63;;;15.00;99.90;;;;;;4980378;28;20177;-81
2021/09/09 03:46:33;;;;;;;7.20;5.47;;;15.00;99.90;;;;;;4979648;28;20180;-80
2021/09/09 03:48:58;;;;;;;7.10;5.70;;;15.00;99.90;;;;;;4980933;28;20203;-81
2021/09/09 03:51:24;;;;;;;7.10;6.20;;;15.00;99.90;;;;;;4980976;28;20652;-81
2021/09/09 03:53:50;;;;;;;7.37;5.87;;;15.00;99.90;;;;;;4981255;28;20172;-81
2021/09/09 03:56:15;;;;;;;9.33;6.07;;;15.00;99.90;;;;;;4981130;28;20172;-81
2021/09/09 03:58:41;;;;;;;7.07;6.03;;;;;;;;;;4980173;28;20203;-81
2021/09/09 04:01:07;;;;;;;9.03;6.10;;;;;;;;;;4979853;28;20210;-81
2021/09/09 04:03:33;;;;;;;6.53;5.47;;;15.00;99.90;;;;;;4979775;28;20176;-82
2021/09/09 04:05:58;;;;;;;7.83;6.13;;;15.00;99.90;;;;;;4979497;28;20184;-81
2021/09/09 04:08:24;;;;;;;7.57;5.43;;;15.00;99.90;;;;;;4980733;28;20247;-81
2021/09/09 04:10:50;;;;;;;7.90;5.10;;;15.10;99.90;;;;;;4979509;28;20207;-81
2021/09/09 04:13:15;;;;;;;6.50;5.30;;;15.10;99.90;;;;;;4980864;28;20223;-81
2021/09/09 04:15:41;;;;;;;8.13;6.07;;;15.10;99.90;;;;;;4984610;28;20180;-81
2021/09/09 04:18:07;;;;;;;8.73;5.23;;;15.20;99.90;;;;;;4983864;28;20191;-81
2021/09/09 04:20:33;;;;;;;8.37;5.67;;;15.20;99.90;;;;;;4990106;28;20212;-80
2021/09/09 04:22:58;;;;;;;6.87;5.53;;;15.20;99.90;;;;;;4999744;28;20193;-80
2021/09/09 04:25:24;;;;;;;6.03;5.27;;;15.30;99.90;;;;;;5000173;28;20545;-80
2021/09/09 04:27:50;;;;;;;10.60;5.80;;;15.30;99.90;;;;;;4984312;28;20180;-81
2021/09/09 04:30:15;;;;;;;6.43;5.10;;;15.40;99.90;;;;;;4982448;28;20217;-81
2021/09/09 04:32:41;;;;;;;8.87;5.67;;;15.30;99.90;;;;;;4982737;28;20212;-81
2021/09/09 04:35:07;;;;;;;6.83;5.40;;;15.40;99.90;;;;;;4983012;28;20219;-81
2021/09/09 04:37:35;;;;;;;5.87;5.00;;;15.40;99.90;;;;;;4983926;28;20188;-81
2021/09/09 04:40:01;;;;;;;6.23;5.30;;;15.30;99.90;;;;;;4982793;28;20554;-81
2021/09/09 04:42:26;;;;;;;6.53;5.47;;;15.30;99.90;;;;;;4982339;28;20184;-81
2021/09/09 04:44:52;;;;;;;8.27;5.33;;;15.30;99.90;;;;;;4982415;28;20538;-81
2021/09/09 04:47:17;;;;;;;8.93;5.57;;;15.30;99.90;;;;;;4983107;28;20189;-81
2021/09/09 04:49:43;;;;;;;7.03;5.93;;;15.20;99.90;;;;;;4983838;28;20296;-81
2021/09/09 04:52:09;;;;;;;6.33;5.47;;;15.20;99.90;;;;;;4982430;28;20263;-81
2021/09/09 04:54:34;;;;;;;6.17;5.57;;;15.20;99.90;;;;;;4984189;28;20543;-83
2021/09/09 04:57:00;;;;;;;5.57;5.00;;;15.20;99.90;;;;;;4983583;28;20180;-82
2021/09/09 04:59:26;;;;;;;8.07;5.60;;;15.10;99.90;;;;;;4985024;28;20669;-82
2021/09/09 05:01:51;;;;;;;6.20;5.40;;;15.10;99.90;;;;;;4983470;28;20192;-82
2021/09/09 05:04:19;;;;;;;10.10;5.83;;;15.10;99.90;;;;;;4985049;28;20192;-81
2021/09/09 05:06:45;;;;;;;11.30;5.53;;;15.10;99.90;;;;;;4987324;28;20176;-82
2021/09/09 05:09:11;;;;;;;5.97;5.20;;;;;;;;;;5007731;28;20196;-81
2021/09/09 05:11:36;;;;;;;10.27;5.93;;;15.10;99.90;;;;;;5019065;28;20202;-81
2021/09/09 05:14:02;;;;;;;7.80;6.00;;;15.10;99.90;;;;;;5008217;28;20179;-81
2021/09/09 05:16:28;;;;;;;7.60;5.97;;;15.10;99.90;;;;;;5002395;28;20203;-81
2021/09/09 05:18:53;;;;;;;9.17;5.00;;;15.10;99.90;;;;;;5003230;28;20602;-81
2021/09/09 05:21:19;;;;;;;10.50;5.90;;;15.00;99.90;;;;;;5006447;28;20199;-80
2021/09/09 05:23:44;;;;;;;6.60;5.40;;;15.10;99.90;;;;;;5004814;28;20195;-81
2021/09/09 05:26:10;;;;;;;6.10;5.50;;;15.10;99.90;;;;;;5004136;28;20183;-80
2021/09/09 05:28:36;;;;;;;7.17;5.10;;;15.10;99.90;;;;;;5003594;28;20226;-80
2021/09/09 05:31:02;;;;;;;5.93;4.97;;;15.10;99.90;;;;;;5003197;28;20222;-80
2021/09/09 05:33:27;;;;;;;6.10;5.50;;;15.10;99.90;;;;;;5004863;28;20231;-81
2021/09/09 05:35:53;;;;;;;6.57;5.63;;;15.20;99.90;;;;;;5003022;28;20192;-81
2021/09/09 05:38:19;;;;;;;5.87;5.20;;;15.30;99.90;;;;;;5005051;28;20712;-80
2021/09/09 05:40:44;;;;;;;6.97;5.30;;;15.30;99.90;;;;;;5006000;28;20282;-81
2021/09/09 05:43:10;;;;;;;7.57;5.50;;;15.30;99.90;;;;;;5006150;28;20180;-80
2021/09/09 05:45:36;;;;;;;7.17;5.60;;;15.40;99.90;;;;;;5002448;28;20188;-81
2021/09/09 05:48:03;;;;;;;6.70;5.57;;;15.40;99.90;;;;;;5002596;28;20183;-81
2021/09/09 05:50:29;;;;;;;10.20;5.30;;;15.40;99.90;;;;;;5006945;28;20203;-81
2021/09/09 05:52:54;;;;;;;6.40;5.00;;;15.50;99.90;;;;;;5019020;28;20280;-82
2021/09/09 05:55:20;;;;;;;6.63;5.20;;;15.60;99.90;;;;;;5015456;28;20179;-82
2021/09/09 05:57:45;;;;;;;6.03;5.40;;;15.70;99.90;;;;;;5002580;28;20175;-81
2021/09/09 06:00:11;;;;;;;7.03;6.07;;;15.80;99.90;;;;;;5001984;28;20291;-81
2021/09/09 06:02:46;;;;;;;5.70;4.83;;;15.90;99.90;;;;;;5001016;28;20646;-81
2021/09/09 06:05:13;;;;;;;6.83;5.40;;;16.00;99.90;;;;;;5001169;28;20187;-81
2021/09/09 06:07:39;;;;;;;6.40;4.93;;;16.10;99.90;;;;;;5001975;28;20219;-81
2021/09/09 06:10:06;;;;;;;8.57;5.13;;;16.30;99.90;;;;;;5002476;28;20212;-81
2021/09/09 06:12:31;;;;;;;10.97;5.40;;;16.40;99.90;;;;;;5002154;28;20214;-81
2021/09/09 06:14:57;;;;;;;6.97;5.10;;;16.50;99.90;;;;;;5000902;28;20177;-81
2021/09/09 06:17:23;;;;;;;5.87;5.27;;;16.60;99.90;;;;;;5001548;28;20196;-81
2021/09/09 06:19:48;;;;;;;7.07;5.13;;;16.80;99.90;;;;;;5001204;28;20196;-81
2021/09/09 06:22:14;;;;;;;8.03;4.90;;;16.80;99.90;;;;;;5001821;28;20176;-81
2021/09/09 06:24:40;;;;;;;5.70;4.70;;;16.90;99.90;;;;;;5007068;28;20207;-81
2021/09/09 06:27:06;;;;;;;6.73;5.00;;;16.90;99.90;;;;;;5011097;28;20176;-81
2021/09/09 06:29:31;;;;;;;7.13;5.57;;;17.10;99.90;;;;;;5011555;28;20187;-80
2021/09/09 06:31:57;;;;;;;6.13;5.33;;;17.00;99.90;;;;;;5000704;28;20582;-81
2021/09/09 06:34:23;;;;;;;8.13;4.97;;;17.10;99.90;;;;;;4998517;28;20191;-81
2021/09/09 06:36:48;;;;;;;5.60;4.90;;;17.30;99.90;;;;;;4999096;28;20176;-81
2021/09/09 06:39:14;;;;;;;6.20;4.97;;;17.50;99.90;;;;;;4999405;28;20179;-81
2021/09/09 06:41:45;;;;;;;6.37;5.10;;;17.50;99.90;;;;;;4999357;28;20187;-81
2021/09/09 06:44:15;;;;;;;8.77;5.17;;;17.60;99.90;;;;;;4999794;28;20729;-81
2021/09/09 06:46:42;;;;;;;8.57;5.23;;;17.70;99.90;;;;;;5001159;28;20182;-81
2021/09/09 06:49:08;;;;;;;8.80;5.43;;;17.80;99.90;;;;;;5000624;28;20267;-82
2021/09/09 06:51:35;;;;;;;7.57;5.10;;;17.90;99.90;;;;;;5001307;28;20211;-81
2021/09/09 06:54:00;;;;;;;6.43;4.43;;;18.00;99.90;;;;;;5001516;28;20631;-81
2021/09/09 06:56:26;;;;;;;8.57;4.87;;;18.10;99.90;;;;;;5000532;28;20172;-81
2021/09/09 06:58:52;;;;;;;8.43;4.80;;;18.30;99.90;;;;;;5001016;28;20180;-81
2021/09/09 07:01:18;;;;;;;5.60;4.43;;;18.60;99.90;;;;;;5001779;28;20218;-81
2021/09/09 07:03:43;;;;;;;6.77;4.43;;;18.80;99.90;;;;;;5003388;28;20630;-81
2021/09/09 07:06:09;;;;;;;6.47;4.87;;;19.10;99.90;;;;;;5004779;28;20196;-81
2021/09/09 07:08:35;;;;;;;5.03;4.43;;;19.40;99.90;;;;;;5005333;28;20264;-81
2021/09/09 07:11:01;;;;;;;6.33;4.60;;;19.70;99.90;;;;;;5007893;28;20216;-80
2021/09/09 07:13:31;;;;;;;11.57;4.63;;;20.00;99.90;;;;;;5018373;28;20181;-81
2021/09/09 07:15:57;;;;;;;5.27;4.20;;;20.10;99.90;;;;;;5018017;28;20176;-81
2021/09/09 07:18:24;;;;;;;5.83;4.30;;;20.20;99.90;;;;;;5006421;28;20175;-81
2021/09/09 07:20:50;;;;;;;6.73;4.77;;;20.30;99.90;;;;;;5000640;28;20244;-81
2021/09/09 07:23:16;;;;;;;8.60;4.77;;;20.30;99.90;;;;;;5000700;28;20171;-82
2021/09/09 07:25:42;;;;;;;5.27;4.60;;;20.30;99.90;;;;;;5000476;28;20217;-81
2021/09/09 07:28:07;;;;;;;6.07;4.47;;;20.40;99.90;;;;;;5002769;28;20207;-82
2021/09/09 07:30:35;;;;;;;5.17;4.40;;;20.50;99.90;;;;;;5012833;28;20204;-81
2021/09/09 07:33:01;;;;;;;9.83;4.30;;;20.60;99.90;;;;;;5015268;28;20201;-81
2021/09/09 07:35:26;;;;;;;5.17;4.53;;;20.70;99.90;;;;;;5011101;28;20211;-81
2021/09/09 07:37:52;;;;;;;6.03;4.10;;;20.70;99.90;;;;;;5000662;28;20186;-81
2021/09/09 07:40:18;;;;;;;5.40;4.50;;;20.70;99.90;;;;;;5000263;28;20202;-81
2021/09/09 07:42:43;;;;;;;4.73;4.13;;;20.70;99.90;;;;;;4999845;28;20183;-82
2021/09/09 07:45:10;;;;;;;5.77;4.57;;;20.90;99.90;;;;;;4998957;28;20183;-81
2021/09/09 07:47:36;;;;;;;7.33;4.50;;;21.10;99.90;;;;;;5001372;28;20203;-81
2021/09/09 07:50:02;;;;;;;8.13;4.00;;;21.10;99.90;;;;;;4998641;28;20206;-81
2021/09/09 07:52:27;;;;;;;6.93;4.37;;;21.00;99.90;;;;;;4999988;28;20264;-81
2021/09/09 07:54:53;;;;;;;6.17;4.20;;;20.80;99.90;;;;;;5000244;28;20176;-80
2021/09/09 07:57:19;;;;;;;5.73;3.93;;;20.70;99.90;;;;;;4999122;28;20184;-81
2021/09/09 07:59:44;;;;;;;5.90;4.07;;;20.50;99.90;;;;;;4998980;28;20206;-81
2021/09/09 08:02:10;;;;;;;3.90;3.50;;;20.30;99.90;;;;;;4999381;28;20187;-81
2021/09/09 08:04:36;;;;;;;4.57;3.97;;;20.10;99.90;;;;;;4997980;28;20256;-81
2021/09/09 08:07:02;;;;;;;4.40;4.00;;;19.90;99.90;;;;;;4998069;28;20194;-81
2021/09/09 08:09:28;;;;;;;5.07;4.27;;;19.80;99.90;;;;;;4997653;28;20210;-82
2021/09/09 08:11:53;;;;;;;10.47;4.63;;;19.60;99.90;;;;;;4995786;28;20294;-81
2021/09/09 08:14:19;;;;;;;8.30;4.80;;;19.50;99.90;;;;;;4995522;28;20186;-81
2021/09/09 08:16:45;;;;;;;6.50;4.20;;;19.40;99.90;;;;;;4999088;28;20182;-81
2021/09/09 08:19:11;;;;;;;10.27;4.10;;;19.40;99.90;;;;;;4997954;28;20247;-81
2021/09/09 08:21:37;;;;;;;4.80;4.30;;;19.30;99.90;;;;;;4998825;28;20202;-81
2021/09/09 08:24:03;;;;;;;10.13;4.67;;;19.30;99.90;;;;;;4998205;28;20245;-81
2021/09/09 08:26:29;;;;;;;5.00;4.23;;;19.20;99.90;;;;;;4999768;28;20271;-81
2021/09/09 08:28:54;;;;;;;6.87;4.77;;;19.20;99.90;;;;;;4997381;28;20278;-81
2021/09/09 08:31:21;;;;;;;7.27;5.03;;;19.20;99.90;;;;;;4997070;28;20207;-82
2021/09/09 08:33:47;;;;;;;5.33;4.10;;;19.20;99.90;;;;;;4997464;28;20184;-81
2021/09/09 08:36:15;;;;;;;6.40;4.70;;;19.20;99.90;;;;;;4998872;28;20203;-81
2021/09/09 08:38:40;;;;;;;5.83;4.70;;;19.10;99.90;;;;;;4999676;28;20172;-81
2021/09/09 08:41:06;;;;;;;4.70;4.00;;;19.10;99.90;;;;;;4999191;28;20626;-82
2021/09/09 08:43:32;;;;;;;6.53;4.70;;;19.10;99.90;;;;;;4998504;28;20180;-81
2021/09/09 08:46:03;;;;;;;6.50;4.97;;;19.00;99.90;;;;;;5000183;28;20183;-82
2021/09/09 08:48:29;;;;;;;5.33;4.83;;;19.10;99.90;;;;;;4998617;28;20246;-81
2021/09/09 08:50:55;;;;;;;8.20;4.57;;;19.00;99.90;;;;;;5000509;28;20193;-82
2021/09/09 08:53:22;;;;;;;5.20;4.67;;;19.00;99.90;;;;;;5000931;28;20211;-81
2021/09/09 08:55:49;;;;;;;5.93;4.37;;;19.00;99.90;;;;;;5001963;28;20176;-82
2021/09/09 08:58:15;;;;;;;7.47;4.53;;;19.00;99.90;;;;;;5000589;28;20298;-81
2021/09/09 09:01:10;;;;;;;5.13;4.50;;;19.00;99.90;;;;;;5003741;28;20196;-82
2021/09/09 09:03:53;;;;;;;8.00;4.63;;;19.00;99.90;;;;;;5003217;28;20272;-82
2021/09/09 09:06:22;;;;;;;3.80;3.20;;;19.10;99.90;;;;;;5020518;28;20153;-81
2021/09/09 09:08:56;;;;;;;5.30;4.20;;;19.10;99.90;;;;;;5015283;28;20176;-82
2021/09/09 09:11:24;;;;;;;4.23;2.87;;;19.10;99.90;;;;;;5003287;28;20196;-82
2021/09/09 09:13:49;;;;;;;8.77;3.43;;;19.10;99.90;;;;;;5003216;28;20178;-82
2021/09/09 09:16:16;;;;;;;5.77;3.33;;;19.10;99.90;;;;;;5004817;28;20210;-82
2021/09/09 09:18:42;;;;;;;6.40;3.43;;;19.10;99.90;;;;;;5011602;28;20197;-81
2021/09/09 09:21:08;;;;;;;3.70;2.90;;;19.10;99.90;;;;;;5019082;28;20282;-81
2021/09/09 09:23:34;;;;;;;6.47;3.53;;;19.10;99.90;;;;;;5018499;28;20226;-81
2021/09/09 09:26:03;;;;;;;6.27;3.27;;;19.00;99.90;;;;;;5009430;28;20520;-81
2021/09/09 09:28:39;;;;;;;4.97;3.33;;;19.00;99.90;;;;;;5001386;28;20209;-82
2021/09/09 09:31:15;;;;;;;5.87;3.43;;;19.00;99.90;;;;;;5000828;28;20207;-81
2021/09/09 09:33:45;;;;;;;4.03;2.93;;;19.10;99.90;;;;;;5002462;28;20171;-82
2021/09/09 09:36:35;;;;;;;3.43;3.13;;;19.00;99.90;;;;;;5001950;28;20657;-82
2021/09/09 09:39:15;;;;;;;4.00;3.40;;;19.00;99.90;;;;;;5002122;28;20548;-81
2021/09/09 09:41:55;;;;;;;4.23;3.03;;;19.00;99.90;;;;;;5000654;28;20180;-82
2021/09/09 09:44:38;;;;;;;3.87;3.43;;;19.10;99.90;;;;;;5002294;28;20172;-81
2021/09/09 09:47:21;;;;;;;5.83;3.57;;;19.10;99.90;;;;;;5002077;28;20229;-81
2021/09/09 09:49:48;;;;;;;5.97;3.77;;;19.20;99.90;;;;;;4999612;28;20264;-81
2021/09/09 09:52:29;;;;;;;5.43;4.00;;;19.30;99.90;;;;;;5001518;28;20213;-82
2021/09/09 09:54:56;;;;;;;3.97;3.40;;;19.30;99.90;;;;;;5001661;28;20174;-81
2021/09/09 09:57:23;;;;;;;4.47;3.63;;;19.30;99.90;;;;;;5001075;28;20193;-81
2021/09/09 09:59:50;;;;;;;5.70;3.50;;;19.30;99.90;;;;;;5001406;28;20204;-81
2021/09/09 10:02:16;;;;;;;4.20;3.70;;;19.30;99.90;;;;;;5000900;28;20186;-81
2021/09/09 10:04:43;;;;;;;4.77;3.70;;;19.40;99.90;;;;;;5001187;28;20182;-82
2021/09/09 10:07:10;;;;;;;6.80;3.90;;;19.40;99.90;;;;;;5003323;28;20177;-82
2021/09/09 10:09:38;;;;;;;4.10;3.70;;;19.30;99.90;;;;;;5002733;28;20209;-82
2021/09/09 10:12:07;;;;;;;4.63;4.07;;;19.30;99.90;;;;;;5002474;28;20202;-81
2021/09/09 10:14:35;;;;;;;4.17;3.77;;;19.30;99.90;;;;;;5001960;28;20185;-82
2021/09/09 10:17:01;;;;;;;7.60;4.23;;;19.30;99.90;;;;;;5002201;28;20541;-82
2021/09/09 10:19:32;;;;;;;5.50;3.77;;;19.40;99.90;;;;;;5000613;28;20192;-82
2021/09/09 10:22:05;;;;;;;5.10;4.30;;;19.40;99.90;;;;;;5002119;28;20205;-82
2021/09/09 10:24:33;;;;;;;5.90;4.37;;;19.40;99.90;;;;;;5002025;28;20181;-82
2021/09/09 10:27:19;;;;;;;4.97;3.87;;;19.40;99.90;;;;;;4990666;28;20210;-82
2021/09/09 10:29:47;;;;;;;6.33;4.03;;;19.50;99.90;;;;;;4995034;28;20209;-83
2021/09/09 10:32:33;;;;;;;6.00;4.57;;;19.40;99.90;;;;;;4991845;28;20204;-84
2021/09/09 10:35:15;;;;;;;7.10;4.40;;;19.10;99.90;;;;;;4997864;28;20296;-83
2021/09/09 10:37:42;;;;;;;6.37;4.90;;;18.80;99.90;;;;;;5007306;28;20186;-83
2021/09/09 10:40:10;;;;;;;6.23;4.77;;;18.40;99.90;;;;;;5012857;28;20200;-83
2021/09/09 10:42:36;;;;;;;4.97;4.47;;;18.30;99.90;;;;;;4999186;28;20178;-83
2021/09/09 10:45:03;;;;;;;7.37;4.57;;;18.20;99.90;;;;;;5000734;28;20185;-84
2021/09/09 10:47:29;;;;;;;5.87;5.30;;;18.20;99.90;;;;;;5000889;28;20173;-84
2021/09/09 10:50:03;;;;;;;6.20;5.40;;;18.30;99.90;;;;;;4999597;28;20204;-84
2021/09/09 10:52:29;;;;;;;6.80;4.40;;;18.30;99.90;;;;;;4987565;28;20203;-83
2021/09/09 10:55:10;;;;;;;5.73;4.70;;;18.40;99.90;;;;;;4983754;28;20205;-84
2021/09/09 10:57:36;;;;;;;6.57;5.40;;;18.50;99.90;;;;;;4983606;28;20241;-83
2021/09/09 11:00:04;;;;;;;5.73;4.67;;;18.60;99.90;;;;;;4979199;28;20205;-83
2021/09/09 11:02:32;;;;;;;7.00;4.87;;;18.70;99.90;;;;;;4979683;28;20182;-83
2021/09/09 11:05:03;;;;;;;7.83;5.53;;;18.70;99.90;;;;;;4982868;28;20174;-83
2021/09/09 11:07:31;;;;;;;5.60;5.03;;;18.80;99.90;;;;;;4982169;28;20182;-83
2021/09/09 11:10:05;;;;;;;6.57;5.20;;;18.80;99.90;;;;;;4983206;28;20201;-83
2021/09/09 11:12:35;;;;;;;7.63;5.40;;;18.90;99.90;;;;;;4984894;28;20205;-83
2021/09/09 11:15:02;;;;;;;8.63;6.00;;;19.10;99.90;;;;;;4993413;28;20165;-82
2021/09/09 11:17:28;;;;;;;6.83;4.97;;;19.10;99.90;;;;;;4996765;28;20251;-82
2021/09/09 11:20:02;;;;;;;6.43;5.20;;;19.30;99.90;;;;;;4997345;28;20198;-82
2021/09/09 11:22:28;;;;;;;12.93;7.03;;;19.40;99.90;;;;;;4981066;28;20172;-82
2021/09/09 11:24:57;;;;;;;6.77;5.10;;;19.60;99.90;;;;;;4979034;28;20683;-82
2021/09/09 11:27:27;;;;;;;9.33;4.90;;;19.70;99.90;;;;;;4990017;28;20240;-81
2021/09/09 11:30:00;;;;;;;12.70;7.73;;;19.80;99.90;;;;;;4990666;28;20205;-82
2021/09/09 11:32:26;;;;;;;6.97;5.33;;;20.00;99.90;;;;;;4989973;28;20202;-81
2021/09/09 11:34:52;;;;;;;5.87;5.00;;;20.00;99.90;;;;;;4991802;28;20199;-82
2021/09/09 11:37:18;;;;;;;6.07;5.20;;;20.00;99.90;;;;;;4979669;28;20544;-82
2021/09/09 11:39:43;;;;;;;6.83;5.33;;;20.00;99.90;;;;;;4980873;28;20194;-83
2021/09/09 11:42:09;;;;;;;6.77;5.40;;;20.10;99.90;;;;;;4980364;28;20230;-83
2021/09/09 11:44:37;;;;;;;8.43;5.67;;;20.10;99.90;;;;;;4981801;28;20581;-83
2021/09/09 11:47:21;;;;;;;6.03;5.43;;;20.10;99.90;;;;;;4981910;28;20257;-82
2021/09/09 11:49:47;;;;;;;7.83;5.77;;;20.20;99.90;;;;;;4981834;28;20668;-82
2021/09/09 11:52:13;;;;;;;7.83;5.97;;;20.30;99.90;;;;;;4981156;28;20711;-82
2021/09/09 11:54:39;;;;;;;7.53;5.93;;;20.40;99.90;;;;;;4982149;28;20231;-82
2021/09/09 11:57:13;;;;;;;7.23;6.03;;;20.50;99.90;;;;;;4980445;28;20234;-82
2021/09/09 11:59:51;;;;;;;6.57;5.90;;;20.50;99.90;;;;;;4981949;28;20191;-82
2021/09/09 12:02:36;;;;;;;6.30;5.40;;;20.60;99.90;;;;;;4980339;28;20189;-83
2021/09/09 12:05:08;;;;;;;6.93;5.57;;;20.70;99.90;;;;;;4983013;28;20303;-82
2021/09/09 12:07:35;;;;;;;7.00;5.07;;;20.70;99.90;;;;;;4992101;28;20177;-81
2021/09/09 12:10:06;;;;;;;8.70;5.93;;;20.80;99.90;;;;;;4988576;28;20200;-81
2021/09/09 12:12:34;;;;;;;7.13;5.40;;;21.00;99.90;;;;;;4979348;28;20218;-82
2021/09/09 12:15:22;;;;;;;6.10;5.17;;;21.20;99.90;;;;;;4980558;28;20183;-81
2021/09/09 12:17:48;;;;;;;5.17;4.47;;;21.30;99.90;;;;;;4982219;28;20176;-82
2021/09/09 12:20:33;;;;;;;7.40;4.90;;;21.20;99.90;;;;;;4980991;28;20192;-82
2021/09/09 12:23:00;;;;;;;6.33;5.60;;;21.30;99.90;;;;;;4982519;28;20248;-82
2021/09/09 12:25:33;;;;;;;5.57;4.97;;;21.30;99.90;;;;;;4979012;28;20183;-82
2021/09/09 12:28:07;;;;;;;6.00;5.17;;;21.50;99.90;;;;;;4977742;28;20187;-81
2021/09/09 12:30:35;;;;;;;5.30;4.77;;;21.60;99.90;;;;;;4978889;28;20767;-82
2021/09/09 12:33:25;;;;;;;6.33;4.77;;;21.80;99.90;;;;;;4977533;28;20674;-79
2021/09/09 12:36:12;;;;;;;7.13;5.30;;;22.00;99.90;;;;;;4984137;28;20267;-79
2021/09/09 12:38:45;;;;;;;4.97;4.47;;;22.20;99.90;;;;;;4981105;28;20639;-79
2021/09/09 12:41:17;;;;;;;26.33;5.50;;;22.20;99.90;;;;;;4983624;28;20332;-80
2021/09/09 12:44:10;;;;;;;5.37;4.63;;;22.30;99.90;;;;;;4983881;28;20204;-80
2021/09/09 12:46:36;;;;;;;6.13;4.77;;;22.50;99.90;;;;;;4983687;28;20186;-80